Time;durP1;ratioP1;P1;durP2;ratioP2;P2;SDS_P1;SDS_P2;PMS_P1;PMS_P2;Temp;Humidity;BMP_temperature;BMP_pressure;BME280_temperature;BME280_humidity;BME280_pressure;Samples;Min_cycle;Max_cycle;Signal;HPM_P1;HPM_P2
2021/03/27 00:00:24;;;;;;;71.05;35.53;;;;;;;3.05;67.00;101276.06;5050435;28;20029;-72
2021/03/27 00:03:04;;;;;;;81.55;39.92;;;;;;;3.53;66.79;101278.00;5050437;28;20032;-72
2021/03/27 00:05:45;;;;;;;63.95;34.55;;;;;;;3.29;66.85;101277.47;5050332;28;20449;-72
2021/03/27 00:08:20;;;;;;;69.25;34.00;;;;;;;3.58;65.97;101287.31;5050503;28;20033;-72
2021/03/27 00:10:57;;;;;;;71.68;37.33;;;;;;;3.60;66.94;101278.13;5050447;28;20063;-72
2021/03/27 00:13:27;;;;;;;55.58;30.55;;;;;;;2.99;67.15;101258.34;5051587;28;20036;-73
2021/03/27 00:16:13;;;;;;;34.65;22.63;;;;;;;2.93;68.18;101286.66;5051711;28;20029;-72
2021/03/27 00:18:59;;;;;;;38.22;21.67;;;;;;;2.41;69.19;101284.53;5050477;28;20033;-72
2021/03/27 00:21:47;;;;;;;42.55;22.45;;;;;;;3.06;67.80;101276.09;5051618;28;20489;-73
2021/03/27 00:24:36;;;;;;;33.70;19.30;;;;;;;2.56;68.95;101257.31;5050131;28;20086;-72
2021/03/27 00:27:08;;;;;;;61.78;29.00;;;;;;;2.65;68.05;101279.28;5073005;28;20135;-71
2021/03/27 00:29:46;;;;;;;38.13;21.95;;;;;;;2.05;70.30;101262.63;5073044;28;20036;-72
2021/03/27 00:32:23;;;;;;;40.67;23.65;;;;;;;2.54;68.17;101258.09;5073462;28;20051;-72
2021/03/27 00:35:05;;;;;;;36.88;21.95;;;;;;;2.56;69.37;101259.81;5091621;28;20441;-72
2021/03/27 00:37:32;;;;;;;37.42;22.20;;;;;;;2.52;69.49;101232.09;5091250;28;20480;-72
2021/03/27 00:40:18;;;;;;;37.95;23.15;;;;;;;2.67;68.80;101218.25;5089903;28;20051;-71
2021/03/27 00:43:06;;;;;;;39.65;23.20;;;;;;;2.94;67.68;101263.25;5091396;28;20027;-72
2021/03/27 00:46:01;;;;;;;40.95;24.35;;;;;;;3.15;67.76;101253.69;5090135;28;20054;-72
2021/03/27 00:48:43;;;;;;;51.28;27.05;;;;;;;2.97;68.17;101239.88;5069866;28;20509;-71
2021/03/27 00:51:18;;;;;;;83.78;37.15;;;;;;;3.14;66.91;101246.13;5072811;28;20122;-72
2021/03/27 00:54:07;;;;;;;63.80;31.83;;;;;;;2.61;69.75;101255.75;5092012;28;20040;-72
2021/03/27 00:56:44;;;;;;;71.93;33.80;;;;;;;2.68;69.54;101241.69;5091059;28;20032;-72
2021/03/27 00:59:23;;;;;;;71.85;33.67;;;;;;;2.91;68.96;101248.09;5090941;28;20036;-72
2021/03/27 01:01:53;;;;;;;50.88;27.05;;;;;;;3.29;68.03;101237.25;5091019;28;20047;-72
2021/03/27 01:04:25;;;;;;;45.83;26.05;;;;;;;3.21;68.29;101253.81;5072857;28;20024;-72
2021/03/27 01:06:53;;;;;;;;;;;;;;;3.10;68.61;101250.25;5073545;28;20122;-71
2021/03/27 01:09:26;;;;;;;31.95;19.77;;;;;;;2.63;69.17;101245.78;5091138;28;19999;-71
2021/03/27 01:12:05;;;;;;;31.88;20.67;;;;;;;2.24;71.26;101245.59;5090984;28;20047;-71
2021/03/27 01:14:40;;;;;;;36.75;20.95;;;;;;;2.63;70.51;101241.59;5072709;28;20089;-72
2021/03/27 01:17:13;;;;;;;33.13;21.15;;;;;;;2.47;71.01;101236.16;5091062;28;20433;-72
2021/03/27 01:19:51;;;;;;;36.25;21.52;;;;;;;3.19;68.50;101245.41;5090727;28;20064;-72
2021/03/27 01:22:18;;;;;;;35.58;21.75;;;;;;;2.59;69.96;101249.84;5090756;28;20054;-72
2021/03/27 01:24:47;;;;;;;42.33;22.67;;;;;;;2.90;69.43;101243.91;5089708;28;20469;-72
2021/03/27 01:27:16;;;;;;;42.88;23.80;;;;;;;2.95;68.82;101252.38;5090546;28;20509;-71
2021/03/27 01:29:56;;;;;;;45.67;24.30;;;;;;;2.89;69.92;101244.75;5090609;28;20028;-71
2021/03/27 01:32:30;;;;;;;43.58;23.63;;;;;;;3.19;68.42;101250.44;5089584;28;20035;-71
2021/03/27 01:35:07;;;;;;;40.47;23.40;;;;;;;2.98;68.13;101246.59;5072678;28;20413;-71
2021/03/27 01:37:47;;;;;;;46.95;24.83;;;;;;;2.87;69.99;101246.38;5090609;28;20039;-71
2021/03/27 01:40:35;;;;;;;51.05;27.52;;;;;;;3.10;68.61;101247.72;5072517;28;20032;-71
2021/03/27 01:43:23;;;;;;;53.95;29.13;;;;;;;2.71;69.82;101249.31;5072405;28;20028;-71
2021/03/27 01:46:21;;;;;;;59.22;31.15;;;;;;;2.67;71.92;101253.41;5078197;28;20166;-72
2021/03/27 01:49:17;;;;;;;55.83;30.67;;;;;;;3.03;70.61;101248.38;5090721;28;20036;-71
2021/03/27 01:52:01;;;;;;;50.65;28.92;;;;;;;2.51;71.73;101245.47;5090611;28;20043;-71
2021/03/27 01:54:56;;;;;;;54.33;30.88;;;;;;;2.70;70.98;101255.13;5090945;28;20101;-71
2021/03/27 01:57:33;;;;;;;54.00;30.20;;;;;;;2.67;70.19;101255.06;5090597;28;20042;-72
2021/03/27 02:00:09;;;;;;;51.40;30.60;;;;;;;2.72;71.05;101243.47;5091719;28;20434;-71
2021/03/27 02:02:57;;;;;;;54.13;29.88;;;;;;;2.91;70.12;101248.09;5094241;28;20489;-71
2021/03/27 02:05:31;;;;;;;52.17;31.48;;;;;;;2.52;71.57;101252.16;5083150;28;20035;-71
2021/03/27 02:08:22;;;;;;;55.55;31.02;;;;;;;2.76;71.39;101256.94;5094191;28;20028;-71
2021/03/27 02:11:22;;;;;;;58.53;32.85;;;;;;;2.74;69.76;101246.88;5075847;28;20544;-71
2021/03/27 02:14:33;;;;;;;60.72;35.83;;;;;;;2.87;70.41;101261.44;5076607;28;20032;-71
2021/03/27 02:17:07;;;;;;;58.78;33.83;;;;;;;2.70;71.03;101262.66;5075999;28;20032;-70
2021/03/27 02:19:58;;;;;;;54.25;33.28;;;;;;;2.16;72.81;101262.13;5093770;28;20028;-71
2021/03/27 02:22:30;;;;;;;55.08;33.10;;;;;;;2.34;72.45;101266.75;5093733;28;20035;-71
2021/03/27 02:25:37;;;;;;;59.75;33.92;;;;;;;2.13;72.47;101273.72;5075920;28;20089;-71
2021/03/27 02:28:40;;;;;;;59.97;35.08;;;;;;;2.41;70.91;101274.50;5011305;28;20054;-71
2021/03/27 02:31:15;;;;;;;52.35;31.40;;;;;;;2.30;70.83;101265.84;5093466;28;20036;-71
2021/03/27 02:33:54;;;;;;;48.65;29.95;;;;;;;2.37;71.18;101266.84;5075586;28;20085;-71
2021/03/27 02:36:34;;;;;;;44.22;27.63;;;;;;;2.08;72.16;101272.78;5093583;28;20032;-71
2021/03/27 02:39:23;;;;;;;44.70;27.23;;;;;;;2.45;70.34;101270.41;5075307;28;20109;-71
2021/03/27 02:42:03;;;;;;;38.70;24.77;;;;;;;2.18;71.48;101270.53;5092632;28;20028;-71
2021/03/27 02:44:46;;;;;;;38.45;23.33;;;;;;;1.77;72.97;101281.94;5075024;28;20424;-71
2021/03/27 02:47:26;;;;;;;41.58;22.85;;;;;;;2.23;70.48;101279.03;5075287;28;20028;-71
2021/03/27 02:50:22;;;;;;;42.60;24.92;;;;;;;2.16;71.14;101277.16;5093338;28;20024;-71
2021/03/27 02:53:15;;;;;;;43.50;24.45;;;;;;;2.25;72.74;101276.56;5093176;28;20024;-70
2021/03/27 02:56:08;;;;;;;42.92;22.50;;;;;;;2.08;72.07;101281.13;5093254;28;20119;-70
2021/03/27 02:58:52;;;;;;;28.90;17.55;;;;;;;2.17;71.43;101276.38;5075062;28;20119;-71
2021/03/27 03:01:31;;;;;;;29.48;15.50;;;;;;;1.89;71.42;101283.09;5092895;28;20031;-71
2021/03/27 03:04:28;;;;;;;26.10;14.35;;;;;;;1.80;72.06;101286.19;5074957;28;20024;-72
2021/03/27 03:07:16;;;;;;;23.48;13.50;;;;;;;1.49;73.09;101284.47;5075002;28;20039;-72
2021/03/27 03:10:03;;;;;;;16.75;10.95;;;;;;;0.92;74.60;101286.81;5075030;28;20020;-72
2021/03/27 03:12:43;;;;;;;16.65;10.20;;;;;;;0.48;75.62;101287.88;5092148;28;20089;-72
2021/03/27 03:15:33;;;;;;;17.58;10.00;;;;;;;0.96;73.05;101289.47;5074597;28;20035;-72
2021/03/27 03:18:27;;;;;;;17.15;11.00;;;;;;;0.98;73.33;101287.88;5074598;28;20028;-71
2021/03/27 03:22:01;;;;;;;18.73;10.68;;;;;;;1.24;73.21;101289.53;5074493;28;20028;-71
2021/03/27 03:24:39;;;;;;;18.80;10.55;;;;;;;0.76;74.74;101281.34;5030252;28;20052;-72
2021/03/27 03:27:17;;;;;;;16.15;10.45;;;;;;;1.07;73.52;101287.31;5030358;28;20050;-72
2021/03/27 03:30:08;;;;;;;18.63;10.48;;;;;;;0.79;74.38;101285.59;5069398;28;20039;-71
2021/03/27 03:32:36;;;;;;;17.70;10.43;;;;;;;1.05;73.75;101289.75;5092969;28;20041;-72
2021/03/27 03:35:26;;;;;;;15.77;10.43;;;;;;;1.36;72.86;101286.56;5092715;28;20273;-72
2021/03/27 03:38:35;;;;;;;15.68;10.35;;;;;;;1.20;73.78;101284.38;5092499;28;20444;-71
2021/03/27 03:41:19;;;;;;;18.50;11.43;;;;;;;1.72;72.77;101285.97;5092419;28;20039;-71
2021/03/27 03:43:56;;;;;;;19.05;12.32;;;;;;;1.53;72.40;101281.25;5074195;28;20088;-72
2021/03/27 03:46:30;;;;;;;21.25;11.85;;;;;;;1.06;75.03;101281.47;5091979;28;20028;-71
2021/03/27 03:49:03;;;;;;;15.05;9.88;;;;;;;1.51;71.98;101287.84;5092168;28;20028;-72
2021/03/27 03:51:35;;;;;;;18.95;10.95;;;;;;;1.66;72.55;101298.31;5074156;28;20027;-71
2021/03/27 03:54:10;;;;;;;;;;;;;;;0.78;75.23;101308.91;5074231;28;20039;-72
2021/03/27 03:56:52;;;;;;;26.88;16.17;;;;;;;0.96;74.83;101303.66;5092159;28;19965;-71
2021/03/27 03:59:23;;;;;;;34.30;19.42;;;;;;;0.92;75.88;101315.22;5092009;28;20028;-71
2021/03/27 04:02:13;;;;;;;27.05;15.40;;;;;;;0.94;74.93;101312.75;5091970;28;20035;-72
2021/03/27 04:04:49;;;;;;;29.65;17.27;;;;;;;1.03;75.18;101310.56;5073688;28;20036;-72
2021/03/27 04:07:29;;;;;;;31.20;17.48;;;;;;;1.36;74.18;101322.47;5073814;28;20031;-71
2021/03/27 04:10:11;;;;;;;21.88;14.50;;;;;;;0.48;76.49;101315.38;5091774;28;20024;-72
2021/03/27 04:12:43;;;;;;;22.23;13.63;;;;;;;0.70;75.74;101315.31;5073876;28;20081;-71
2021/03/27 04:15:14;;;;;;;22.50;14.15;;;;;;;0.54;77.44;101338.97;5091527;28;20028;-71
2021/03/27 04:17:49;;;;;;;27.98;17.95;;;;;;;0.89;76.49;101330.97;5073442;28;20071;-71
2021/03/27 04:20:21;;;;;;;36.17;23.25;;;;;;;0.73;77.16;101340.44;5091725;28;20052;-72
2021/03/27 04:23:00;;;;;;;35.03;19.58;;;;;;;0.84;75.58;101341.66;5091356;28;20056;-72
2021/03/27 04:25:33;;;;;;;42.50;21.95;;;;;;;1.01;74.89;101348.03;5091930;28;20046;-72
2021/03/27 04:28:21;;;;;;;33.42;20.10;;;;;;;0.73;75.67;101355.47;5073259;28;20509;-72
2021/03/27 04:30:57;;;;;;;28.15;17.92;;;;;;;0.78;75.45;101351.44;5073505;28;20028;-73
2021/03/27 04:34:05;;;;;;;24.58;15.00;;;;;;;0.12;77.40;101361.63;5073668;28;20030;-72
2021/03/27 04:36:52;;;;;;;23.98;15.50;;;;;;;0.14;76.58;101370.88;5091776;28;20466;-72
2021/03/27 04:39:47;;;;;;;25.90;14.75;;;;;;;0.37;75.75;101365.06;5073457;28;20470;-72
2021/03/27 04:42:24;;;;;;;23.88;15.20;;;;;;;0.83;75.18;101360.81;5091529;28;20028;-72
2021/03/27 04:45:05;;;;;;;25.92;16.48;;;;;;;0.77;75.82;101375.63;5091318;28;20032;-72
2021/03/27 04:47:36;;;;;;;26.77;16.58;;;;;;;1.16;75.32;101365.22;5073137;28;20024;-71
2021/03/27 04:50:21;;;;;;;27.33;16.05;;;;;;;0.92;74.63;101374.44;5091456;28;20039;-72
2021/03/27 04:53:01;;;;;;;23.45;14.88;;;;;;;0.92;75.18;101372.78;5073406;28;20047;-71
2021/03/27 04:56:04;;;;;;;20.55;13.30;;;;;;;1.47;73.92;101371.25;5073284;28;20115;-71
2021/03/27 04:58:42;;;;;;;20.30;13.40;;;;;;;1.31;74.29;101375.72;5073006;28;21170;-71
2021/03/27 05:01:17;;;;;;;20.50;14.48;;;;;;;0.79;75.46;101366.50;5091087;28;20468;-71
2021/03/27 05:04:05;;;;;;;20.88;12.38;;;;;;;1.38;74.63;101382.63;5073277;28;20103;-72
2021/03/27 05:07:02;;;;;;;15.90;10.93;;;;;;;1.37;74.37;101386.78;5091213;28;20024;-71
2021/03/27 05:09:53;;;;;;;18.45;11.20;;;;;;;1.06;75.10;101380.75;5072652;28;20036;-70
2021/03/27 05:12:51;;;;;;;22.17;11.82;;;;;;;1.14;75.57;101394.38;5072947;28;20084;-71
2021/03/27 05:15:25;;;;;;;24.45;14.65;;;;;;;1.42;74.99;101390.31;5079539;28;20036;-72
2021/03/27 05:18:17;;;;;;;23.23;13.60;;;;;;;1.62;73.57;101390.91;5072931;28;20505;-71
2021/03/27 05:20:47;;;;;;;21.85;12.70;;;;;;;1.88;73.12;101386.69;5091121;28;20042;-72
2021/03/27 05:26:58;;;;;;;35.08;21.30;;;;;;;2.57;71.56;101388.69;5091218;28;20048;-72
2021/03/27 05:29:43;;;;;;;369.15;124.70;;;;;;;2.99;69.85;101389.78;5072693;28;20040;-74
2021/03/27 05:32:24;;;;;;;445.23;143.45;;;;;;;3.20;68.92;101395.34;5090896;28;20032;-71
2021/03/27 05:35:11;;;;;;;275.20;79.90;;;;;;;3.35;68.34;101365.56;5092210;28;20035;-71
2021/03/27 05:37:52;;;;;;;166.68;52.28;;;;;;;3.65;67.92;101389.69;5094795;28;20081;-72
2021/03/27 05:41:13;;;;;;;250.48;89.35;;;;;;;3.88;66.16;101396.91;5076437;28;20047;-73
2021/03/27 05:44:00;;;;;;;59.15;28.90;;;;;;;4.14;65.75;101397.50;5012581;28;20500;-72
2021/03/27 05:46:59;;;;;;;37.20;22.15;;;;;;;4.71;65.51;101395.28;5076244;28;20037;-71
2021/03/27 05:49:44;;;;;;;32.05;20.90;;;;;;;4.65;65.42;101398.53;5076406;28;20039;-72
2021/03/27 05:52:35;;;;;;;28.15;17.30;;;;;;;4.50;65.91;101395.69;5094590;28;20032;-73
2021/03/27 05:55:22;;;;;;;60.45;27.42;;;;;;;5.44;63.66;101394.84;5094873;28;20485;-73
2021/03/27 05:58:15;;;;;;;44.13;23.48;;;;;;;5.45;62.55;101399.06;5094576;28;20043;-72
2021/03/27 06:00:55;;;;;;;38.72;21.48;;;;;;;5.08;63.61;101403.50;5094405;28;20032;-72
2021/03/27 06:03:50;;;;;;;36.90;20.30;;;;;;;5.68;60.14;101397.75;5076360;28;20485;-72
2021/03/27 06:06:27;;;;;;;34.17;18.67;;;;;;;6.17;59.59;101402.66;5094286;28;20020;-71
2021/03/27 06:08:59;;;;;;;31.77;20.55;;;;;;;6.20;59.93;101400.16;5075999;28;20552;-72
2021/03/27 06:12:06;;;;;;;50.50;32.75;;;;;;;6.73;57.86;101394.06;5095041;28;20028;-73
2021/03/27 06:14:41;;;;;;;50.65;26.58;;;;;;;6.72;57.24;101374.69;5067163;28;20028;-73
2021/03/27 06:17:37;;;;;;;49.50;28.95;;;;;;;6.79;57.68;101399.16;5076026;28;20031;-73
2021/03/27 06:20:04;;;;;;;48.55;27.67;;;;;;;7.08;56.19;101401.13;5076219;28;20035;-73
2021/03/27 06:22:35;;;;;;;46.75;25.90;;;;;;;7.03;56.51;101407.84;5094021;28;20489;-73
2021/03/27 06:25:33;;;;;;;39.97;23.33;;;;;;;6.76;55.28;101408.41;5094447;28;20035;-73
2021/03/27 06:28:20;;;;;;;40.70;25.10;;;;;;;8.15;52.28;101395.16;5075724;28;20051;-72
2021/03/27 06:31:04;;;;;;;49.13;31.08;;;;;;;7.92;53.87;101406.84;5075892;28;20472;-73
2021/03/27 06:33:46;;;;;;;41.95;25.50;;;;;;;7.90;53.91;101406.00;5075765;28;20038;-73
2021/03/27 06:36:36;;;;;;;31.27;21.30;;;;;;;8.48;52.65;101400.38;5093928;28;20039;-73
2021/03/27 06:39:23;;;;;;;32.72;19.50;;;;;;;9.14;54.14;101399.69;5075361;28;20028;-73
2021/03/27 06:42:30;;;;;;;31.33;18.58;;;;;;;9.15;52.39;101400.53;5076095;28;20035;-77
2021/03/27 06:45:22;;;;;;;34.88;17.83;;;;;;;9.59;50.25;101406.44;5076118;28;20031;-75
2021/03/27 06:54:25;;;;;;;15.20;10.98;;;;;;;8.86;51.68;101412.31;4730216;28;10000483;-74
2021/03/27 06:57:30;;;;;;;25.98;15.20;;;;;;;9.87;50.31;101404.69;5067745;28;20931;-77
2021/03/27 07:00:50;;;;;;;21.15;14.75;;;;;;;10.01;49.71;101408.91;5069007;28;20074;-76
2021/03/27 07:03:46;;;;;;;14.52;10.05;;;;;;;9.78;49.47;101418.28;4989578;28;20030;-76
2021/03/27 07:06:51;;;;;;;21.38;14.15;;;;;;;10.15;51.09;101417.38;5050932;28;20486;-74
2021/03/27 07:09:54;;;;;;;73.55;39.50;;;;;;;10.21;50.43;101419.88;5060800;28;20028;-75
2021/03/27 07:12:42;;;;;;;17.08;11.50;;;;;;;10.00;51.27;101417.34;5068973;28;20028;-75
2021/03/27 07:15:41;;;;;;;17.10;12.20;;;;;;;9.82;51.01;101419.97;5068974;28;20040;-79
2021/03/27 07:18:27;;;;;;;15.27;9.50;;;;;;;10.89;50.36;101417.03;5069533;28;20382;-76
2021/03/27 07:21:32;;;;;;;29.88;15.77;;;;;;;10.81;50.60;101421.31;5069687;28;20062;-77
2021/03/27 07:24:33;;;;;;;18.45;11.88;;;;;;;10.81;49.92;101418.78;5073322;28;20040;-78
2021/03/27 07:27:27;;;;;;;27.83;15.90;;;;;;;10.63;48.91;101423.09;5074028;28;20067;-78
2021/03/27 07:30:30;;;;;;;18.25;11.90;;;;;;;11.62;46.75;101422.41;5069675;28;20842;-77
2021/03/27 07:33:02;;;;;;;15.98;11.02;;;;;;;11.76;45.66;101428.25;5069597;28;20036;-76
2021/03/27 07:35:37;;;;;;;15.52;10.00;;;;;;;11.40;46.95;101423.44;5069406;28;20173;-75
2021/03/27 07:38:21;;;;;;;20.65;12.30;;;;;;;10.90;47.95;101428.03;5068641;28;20024;-76
2021/03/27 07:40:52;;;;;;;22.05;14.10;;;;;;;11.81;45.83;101426.50;5070235;28;20027;-77
2021/03/27 07:43:46;;;;;;;23.02;15.38;;;;;;;11.31;47.07;101424.34;5070132;28;20520;-76
2021/03/27 07:46:37;;;;;;;29.85;16.30;;;;;;;11.91;45.66;101433.19;5069723;28;20122;-75
2021/03/27 07:49:35;;;;;;;19.92;12.35;;;;;;;11.50;45.32;101432.69;5087739;28;20036;-75
2021/03/27 07:52:25;;;;;;;24.58;15.25;;;;;;;11.74;46.56;101432.53;5087173;28;20093;-77
2021/03/27 07:54:56;;;;;;;46.92;20.98;;;;;;;11.45;46.13;101428.50;5055513;28;20041;-79
2021/03/27 07:57:46;;;;;;;22.77;13.75;;;;;;;11.60;45.62;101426.69;5049813;28;20125;-76
2021/03/27 08:00:39;;;;;;;18.20;12.95;;;;;;;11.97;44.67;101438.22;5048579;28;20044;-78
2021/03/27 08:03:42;;;;;;;16.50;10.82;;;;;;;12.04;44.64;101429.66;5066634;28;20105;-75
2021/03/27 08:06:25;;;;;;;18.42;12.23;;;;;;;12.61;44.96;101430.69;5048552;28;20047;-75
2021/03/27 08:09:11;;;;;;;17.50;11.68;;;;;;;11.66;45.12;101436.00;5066140;28;20025;-74
2021/03/27 08:12:04;;;;;;;25.85;12.68;;;;;;;12.24;42.92;101426.88;5048773;28;20054;-75
2021/03/27 08:14:39;;;;;;;64.60;14.88;;;;;;;13.29;42.04;101429.72;5066427;28;20040;-75
2021/03/27 08:17:25;;;;;;;14.68;10.18;;;;;;;11.74;44.12;101429.97;5056957;28;20036;-75
2021/03/27 08:20:09;;;;;;;18.23;11.57;;;;;;;13.53;42.30;101431.88;5069847;28;20039;-76
2021/03/27 08:22:56;;;;;;;12.18;9.82;;;;;;;12.99;42.24;101430.19;5069644;28;20119;-76
2021/03/27 08:25:59;;;;;;;15.30;8.93;;;;;;;13.09;41.76;101428.34;5069658;28;20410;-75
2021/03/27 08:28:32;;;;;;;15.52;10.50;;;;;;;13.29;41.48;101426.34;5088306;28;20048;-76
2021/03/27 08:31:17;;;;;;;15.25;9.82;;;;;;;14.29;41.37;101427.97;5087656;28;20114;-76
2021/03/27 08:34:10;;;;;;;12.20;8.98;;;;;;;13.67;42.09;101406.09;5070263;28;20035;-76
2021/03/27 08:37:03;;;;;;;14.02;9.55;;;;;;;13.66;41.86;101432.53;5088431;28;20595;-76
2021/03/27 08:40:09;;;;;;;14.45;9.02;;;;;;;12.25;42.90;101405.63;5089786;28;20032;-77
2021/03/27 08:42:53;;;;;;;42.35;19.00;;;;;;;13.40;40.33;101425.31;5069616;28;20996;-77
2021/03/27 08:45:30;;;;;;;16.40;10.50;;;;;;;12.92;40.84;101397.91;5069397;28;20043;-76
2021/03/27 08:48:15;;;;;;;15.63;9.25;;;;;;;14.05;39.65;101420.72;5068805;28;20028;-75
2021/03/27 08:51:12;;;;;;;13.95;9.48;;;;;;;14.61;39.06;101417.91;5068463;28;20032;-76
2021/03/27 08:54:15;;;;;;;15.10;10.30;;;;;;;14.64;39.16;101422.97;5082880;28;20097;-76
2021/03/27 08:56:56;;;;;;;21.92;13.57;;;;;;;15.20;38.68;101404.59;5066727;28;20066;-76
2021/03/27 08:59:54;;;;;;;13.25;9.73;;;;;;;14.62;40.24;101405.09;5048839;28;20036;-76
2021/03/27 09:02:36;;;;;;;17.70;11.73;;;;;;;14.70;39.64;101397.22;5048783;28;20509;-76
2021/03/27 09:05:22;;;;;;;16.20;11.13;;;;;;;14.65;39.59;101394.78;5065837;28;20032;-76
2021/03/27 09:08:17;;;;;;;18.50;12.98;;;;;;;15.17;38.91;101396.97;5067072;28;20024;-76
2021/03/27 09:11:24;;;;;;;16.98;11.73;;;;;;;15.56;38.99;101390.94;5051605;28;20032;-77
2021/03/27 09:14:12;;;;;;;23.75;17.80;;;;;;;15.19;38.85;101396.97;5016061;28;20044;-77
2021/03/27 09:17:00;;;;;;;19.35;11.05;;;;;;;15.30;39.10;101380.44;5071288;28;20489;-76
2021/03/27 09:19:53;;;;;;;14.02;10.88;;;;;;;16.23;38.08;101383.94;5071332;28;20039;-76
2021/03/27 09:22:47;;;;;;;15.40;10.38;;;;;;;14.87;39.15;101381.50;5071552;28;20036;-77
2021/03/27 09:25:38;;;;;;;18.25;12.23;;;;;;;16.36;38.63;101380.16;5053152;28;20036;-76
2021/03/27 09:28:18;;;;;;;17.87;12.20;;;;;;;14.78;38.83;101382.53;5051930;28;20076;-76
2021/03/27 09:31:11;;;;;;;16.58;11.70;;;;;;;15.05;39.03;101375.97;5053076;28;20625;-76
2021/03/27 09:33:49;;;;;;;16.98;11.10;;;;;;;15.15;39.60;101347.50;5052461;28;20025;-76
2021/03/27 09:36:24;;;;;;;16.33;11.95;;;;;;;15.70;38.67;101366.63;5070358;28;20036;-77
2021/03/27 09:38:55;;;;;;;17.55;11.48;;;;;;;15.15;37.67;101350.06;5052141;28;20639;-77
2021/03/27 09:41:40;;;;;;;16.10;11.63;;;;;;;15.71;38.82;101365.78;5053018;28;20079;-76
2021/03/27 09:44:48;;;;;;;17.65;11.85;;;;;;;15.63;39.15;101356.53;5052373;28;20032;-76
2021/03/27 09:47:48;;;;;;;15.55;11.00;;;;;;;16.03;37.68;101351.16;5032516;28;20049;-76
2021/03/27 09:50:29;;;;;;;14.02;10.48;;;;;;;16.20;36.74;101337.84;5069848;28;20474;-76
2021/03/27 09:52:55;;;;;;;18.67;10.63;;;;;;;16.58;35.54;101337.56;5052394;28;20037;-77
2021/03/27 09:55:33;;;;;;;16.70;10.38;;;;;;;15.53;35.18;101347.41;5089745;28;20039;-76
2021/03/27 09:58:13;;;;;;;15.10;10.27;;;;;;;17.37;33.63;101335.00;5072140;28;20036;-76
2021/03/27 10:01:01;;;;;;;12.23;9.38;;;;;;;17.57;34.72;101330.88;5088256;28;20035;-74
2021/03/27 10:03:42;;;;;;;14.68;10.20;;;;;;;18.28;33.95;101330.00;5071647;28;20071;-78
2021/03/27 10:06:39;;;;;;;26.55;11.43;;;;;;;17.88;35.05;101323.75;5071843;28;20024;-74
2021/03/27 10:09:25;;;;;;;16.00;10.02;;;;;;;17.69;32.91;101325.28;5072535;28;20032;-75
2021/03/27 10:12:12;;;;;;;13.48;9.70;;;;;;;17.07;31.71;101318.88;5090735;28;20128;-75
2021/03/27 10:14:49;;;;;;;13.85;9.43;;;;;;;17.15;32.86;101310.00;5071349;28;20040;-77
2021/03/27 10:17:34;;;;;;;12.80;9.50;;;;;;;16.81;33.24;101321.44;5072502;28;20489;-76
2021/03/27 10:20:39;;;;;;;13.48;9.10;;;;;;;17.87;31.64;101303.22;5071901;28;20055;-77
2021/03/27 10:23:17;;;;;;;20.45;13.52;;;;;;;17.35;29.83;101299.06;5072360;28;20032;-78
2021/03/27 10:26:05;;;;;;;17.25;11.40;;;;;;;17.45;29.03;101310.69;5072179;28;20036;-77
2021/03/27 10:28:42;;;;;;;13.65;8.60;;;;;;;17.74;28.70;101295.13;5048449;28;20036;-76
2021/03/27 10:31:16;;;;;;;11.18;8.30;;;;;;;18.03;29.98;101286.31;5047906;28;20037;-78
2021/03/27 10:34:13;;;;;;;16.98;10.98;;;;;;;16.86;28.69;101301.56;5048253;28;20355;-76
2021/03/27 10:36:42;;;;;;;15.20;10.00;;;;;;;18.83;26.64;101290.91;5048238;28;20037;-77
2021/03/27 10:39:35;;;;;;;14.23;9.50;;;;;;;18.48;27.03;101302.59;5047917;28;20262;-76
2021/03/27 10:42:29;;;;;;;14.73;10.32;;;;;;;18.99;28.78;101289.38;5047988;28;20033;-75
2021/03/27 10:45:19;;;;;;;16.52;10.82;;;;;;;19.86;28.22;101292.44;5047944;28;20029;-76
2021/03/27 10:47:48;;;;;;;16.02;10.95;;;;;;;18.64;30.47;101283.06;5047743;28;20036;-74
2021/03/27 10:50:34;;;;;;;11.57;9.15;;;;;;;18.31;30.40;101268.91;5047789;28;20032;-76
2021/03/27 10:53:18;;;;;;;12.32;9.30;;;;;;;18.87;29.70;101288.13;5048635;28;20075;-75
2021/03/27 10:56:17;;;;;;;12.13;9.15;;;;;;;17.81;30.27;101285.41;5044990;28;20071;-75
2021/03/27 10:59:05;;;;;;;12.93;8.60;;;;;;;18.78;28.50;101291.06;5029372;28;20511;-73
2021/03/27 11:02:09;;;;;;;11.77;9.15;;;;;;;18.67;28.64;101282.09;5044718;28;20083;-73
2021/03/27 11:04:54;;;;;;;13.63;9.00;;;;;;;19.45;27.77;101273.63;5035817;28;20455;-74
2021/03/27 11:08:06;;;;;;;13.65;8.93;;;;;;;17.57;29.54;101278.63;5047546;28;20028;-75
2021/03/27 11:11:06;;;;;;;15.07;8.55;;;;;;;18.27;28.52;101269.94;5047224;28;20100;-74
2021/03/27 11:13:57;;;;;;;13.38;8.27;;;;;;;18.96;29.07;101279.16;5049776;28;20072;-76
2021/03/27 11:16:59;;;;;;;12.52;8.75;;;;;;;19.17;27.87;101267.13;5047283;28;20494;-76
2021/03/27 11:19:53;;;;;;;15.05;10.07;;;;;;;18.11;28.42;101263.69;5047415;28;20036;-78
2021/03/27 11:22:58;;;;;;;11.80;8.52;;;;;;;18.42;28.06;101261.59;5047522;28;20060;-75
2021/03/27 11:26:08;;;;;;;11.77;8.60;;;;;;;19.52;28.64;101269.03;5047083;28;20064;-75
2021/03/27 11:28:50;;;;;;;13.75;8.85;;;;;;;18.78;27.94;101264.47;5047235;28;20493;-76
2021/03/27 11:31:38;;;;;;;13.43;9.70;;;;;;;18.82;28.38;101256.53;5047186;28;20501;-77
2021/03/27 11:34:10;;;;;;;10.65;8.10;;;;;;;19.43;27.49;101261.72;5047086;28;20110;-77
2021/03/27 11:37:01;;;;;;;12.63;8.35;;;;;;;20.36;26.86;101247.03;5047365;28;20485;-77
2021/03/27 11:39:43;;;;;;;14.40;10.25;;;;;;;18.76;27.74;101254.22;5046915;28;20444;-77
2021/03/27 11:42:36;;;;;;;31.70;18.15;;;;;;;20.05;26.85;101245.94;5047361;28;20037;-77
2021/03/27 11:45:25;;;;;;;13.18;8.85;;;;;;;19.53;25.95;101244.94;5047347;28;20109;-77
2021/03/27 11:48:17;;;;;;;10.95;8.55;;;;;;;19.32;27.53;101222.59;5047555;28;20029;-79
2021/03/27 11:50:43;;;;;;;;;;;;;;;19.49;26.76;101249.38;5047727;28;20040;-78
2021/03/27 11:53:19;;;;;;;12.50;7.97;;;;;;;19.25;26.53;101234.09;5048244;28;19998;-75
2021/03/27 11:56:41;;;;;;;11.80;7.65;;;;;;;19.40;26.57;101233.47;5025937;28;20067;-77
2021/03/27 11:59:42;;;;;;;11.27;7.55;;;;;;;19.54;26.42;101225.94;5038034;28;20091;-77
2021/03/27 12:02:11;;;;;;;13.90;7.23;;;;;;;19.55;25.14;101235.38;5025935;28;20041;-77
2021/03/27 12:04:42;;;;;;;11.05;7.78;;;;;;;19.61;25.92;101224.78;5027290;28;20359;-78
2021/03/27 12:07:21;;;;;;;13.80;10.48;;;;;;;19.18;26.30;101202.59;5025925;28;20081;-76
2021/03/27 12:10:08;;;;;;;17.85;11.45;;;;;;;20.26;25.79;101226.91;5026500;28;20059;-77
2021/03/27 12:13:29;;;;;;;9.00;7.30;;;;;;;19.07;25.63;101227.16;5026534;28;20087;-76
2021/03/27 12:16:03;;;;;;;11.90;8.55;;;;;;;19.58;25.11;101228.34;4950216;28;20045;-76
2021/03/27 12:18:44;;;;;;;13.63;9.13;;;;;;;20.43;24.62;101222.59;4966565;28;20031;-77
2021/03/27 12:21:22;;;;;;;9.25;6.82;;;;;;;20.09;25.13;101216.50;5011158;28;20049;-74
2021/03/27 12:23:55;;;;;;;13.98;8.93;;;;;;;20.91;25.89;101202.97;5026199;28;20034;-73
2021/03/27 12:26:40;;;;;;;9.90;7.60;;;;;;;20.28;25.38;101218.16;5035871;28;20126;-84
2021/03/27 12:29:17;;;;;;;11.73;9.32;;;;;;;18.90;25.97;101218.41;5052954;28;20053;-76
2021/03/27 12:31:56;;;;;;;11.85;8.80;;;;;;;18.36;27.29;101224.97;5068741;28;20041;-74
2021/03/27 12:34:25;;;;;;;10.27;7.65;;;;;;;19.62;25.81;101216.13;5049861;28;20032;-74
2021/03/27 12:37:10;;;;;;;10.75;8.18;;;;;;;20.23;25.37;101212.38;5068056;28;20047;-76
2021/03/27 12:39:47;;;;;;;13.57;11.02;;;;;;;18.68;27.06;101211.63;5049485;28;20032;-74
2021/03/27 12:42:19;;;;;;;14.80;11.05;;;;;;;18.77;26.63;101200.94;5049301;28;20055;-73
2021/03/27 12:44:50;;;;;;;;;;;;;;;19.17;26.36;101210.41;5049620;28;20032;-72
2021/03/27 12:47:54;;;;;;;20.90;16.55;;;;;;;19.63;25.59;101204.91;5049254;28;19919;-73
2021/03/27 12:50:51;;;;;;;11.98;9.50;;;;;;;20.08;26.09;101201.94;5049038;28;20433;-75